createdAt,value
2023-06-12T00:01:02.321Z,46.83
2023-06-12T00:03:31.244Z,47.55
2023-06-12T00:06:00.863Z,47.49
2023-06-12T00:08:31.781Z,47.26
2023-06-12T00:11:00.626Z,47.90
2023-06-12T00:13:28.739Z,48.83
2023-06-12T00:15:56.970Z,49.70
2023-06-12T00:18:25.131Z,49.54
2023-06-12T00:20:56.625Z,49.77
2023-06-12T00:23:24.800Z,49.85
2023-06-12T00:25:54.157Z,49.92
2023-06-12T00:28:25.312Z,50.47
2023-06-12T00:30:54.575Z,51.34
2023-06-12T00:33:22.750Z,51.88
2023-06-12T00:35:51.033Z,52.26
2023-06-12T00:38:19.420Z,53.34
2023-06-12T00:40:47.557Z,53.20
2023-06-12T00:43:17.129Z,53.20
2023-06-12T00:45:46.131Z,53.25
2023-06-12T00:48:14.355Z,52.60
2023-06-12T00:50:42.585Z,53.10
2023-06-12T00:53:11.134Z,53.10
2023-06-12T00:55:39.188Z,52.89
2023-06-12T00:58:07.518Z,52.97
2023-06-12T01:00:39.773Z,53.77
2023-06-12T01:03:10.081Z,53.92
2023-06-12T01:05:43.329Z,54.56
2023-06-12T01:08:20.652Z,55.87
2023-06-12T01:10:59.616Z,55.92
2023-06-12T01:13:28.591Z,56.39
2023-06-12T01:15:59.757Z,57.09
2023-06-12T01:18:28.111Z,56.87
2023-06-12T01:20:59.921Z,56.14
2023-06-12T01:23:53.899Z,56.73
2023-06-12T01:26:38.384Z,57.44
2023-06-12T01:29:48.016Z,57.79
2023-06-12T01:32:18.588Z,57.03
2023-06-12T01:34:52.868Z,57.77
2023-06-12T01:37:34.097Z,58.06
2023-06-12T01:40:10.333Z,57.92
2023-06-12T01:42:39.796Z,57.64
2023-06-12T01:45:08.880Z,57.91
2023-06-12T01:47:38.542Z,57.96
2023-06-12T01:50:07.988Z,58.13
2023-06-12T01:52:36.434Z,56.78
2023-06-12T01:55:05.961Z,56.40
2023-06-12T01:57:34.760Z,56.17
2023-06-12T02:00:05.690Z,56.12
2023-06-12T02:02:51.674Z,56.01
2023-06-12T02:05:22.318Z,55.57
2023-06-12T02:07:50.879Z,55.77
2023-06-12T02:10:19.773Z,55.67
2023-06-12T02:12:48.699Z,55.33
2023-06-12T02:15:18.648Z,54.85
2023-06-12T02:17:46.812Z,54.25
2023-06-12T02:20:16.543Z,53.54
2023-06-12T02:22:45.872Z,52.18
2023-06-12T02:25:14.154Z,51.81
2023-06-12T02:27:42.801Z,49.97
2023-06-12T02:30:12.675Z,47.81
2023-06-12T02:32:41.138Z,45.70
2023-06-12T02:35:11.019Z,43.41
2023-06-12T02:37:40.989Z,40.74
2023-06-12T02:40:10.665Z,38.46
2023-06-12T02:42:39.170Z,36.30
2023-06-12T02:45:08.426Z,34.41
2023-06-12T02:47:36.563Z,33.36
2023-06-12T02:50:08.699Z,31.75
2023-06-12T02:52:48.109Z,29.78
2023-06-12T02:55:16.352Z,28.58
2023-06-12T02:57:45.072Z,27.07
2023-06-12T03:00:15.635Z,26.42
2023-06-12T03:02:48.734Z,25.25
2023-06-12T03:05:21.995Z,24.41
2023-06-12T03:07:53.789Z,23.42
2023-06-12T03:10:21.937Z,22.84
2023-06-12T03:12:50.304Z,21.82
2023-06-12T03:15:19.627Z,21.26
2023-06-12T03:17:47.844Z,20.35
2023-06-12T03:20:16.833Z,19.85
2023-06-12T03:22:46.973Z,19.70
2023-06-12T03:25:20.418Z,18.22
2023-06-12T03:27:49.828Z,18.00
2023-06-12T03:30:18.664Z,17.44
2023-06-12T03:32:48.339Z,16.98
2023-06-12T03:35:17.704Z,15.85
2023-06-12T03:37:48.608Z,15.85
2023-06-12T03:40:21.045Z,15.57
2023-06-12T03:42:50.149Z,15.31
2023-06-12T03:45:18.504Z,15.17
2023-06-12T03:47:46.734Z,14.94
2023-06-12T03:50:18.319Z,14.80
2023-06-12T03:52:47.468Z,14.81
2023-06-12T03:55:18.559Z,13.58
2023-06-12T03:57:49.172Z,13.38
2023-06-12T04:00:21.147Z,13.27
2023-06-12T04:02:53.109Z,12.18
2023-06-12T04:05:23.426Z,12.93
2023-06-12T04:07:52.013Z,11.40
2023-06-12T04:10:20.689Z,11.09
2023-06-12T04:12:50.523Z,10.73
2023-06-12T04:15:20.449Z,10.74
2023-06-12T04:17:49.845Z,10.90
2023-06-12T04:20:18.944Z,10.72
2023-06-12T04:22:49.053Z,10.29
2023-06-12T04:25:17.745Z,9.98
2023-06-12T04:27:45.917Z,9.56
2023-06-12T04:30:17.077Z,9.51
2023-06-12T04:32:47.823Z,9.38
2023-06-12T04:35:17.712Z,9.39
2023-06-12T04:37:46.069Z,8.48
2023-06-12T04:40:15.629Z,8.79
2023-06-12T04:42:44.657Z,8.54
2023-06-12T04:45:14.563Z,8.20
2023-06-12T04:47:47.632Z,7.84
2023-06-12T04:50:16.076Z,7.06
2023-06-12T04:52:44.253Z,7.26
2023-06-12T04:55:12.428Z,6.63
2023-06-12T04:57:45.176Z,6.18
2023-06-12T05:00:16.936Z,6.42
2023-06-12T05:02:48.406Z,6.27
2023-06-12T05:05:17.523Z,6.09
2023-06-12T05:07:47.562Z,5.60
2023-06-12T05:10:16.277Z,5.53
2023-06-12T05:12:44.817Z,4.99
2023-06-12T05:15:12.986Z,5.00
2023-06-12T05:17:41.237Z,5.10
2023-06-12T05:20:11.418Z,4.88
2023-06-12T05:22:41.007Z,4.58
2023-06-12T05:25:10.343Z,5.10
2023-06-12T05:27:40.702Z,5.19
2023-06-12T05:30:11.725Z,4.83
2023-06-12T05:32:40.556Z,4.53
2023-06-12T05:35:12.409Z,3.95
2023-06-12T05:37:40.843Z,4.02
2023-06-12T05:40:11.195Z,3.50
2023-06-12T05:42:40.607Z,4.03
2023-06-12T05:45:10.242Z,3.48
2023-06-12T05:47:38.668Z,3.21
2023-06-12T05:50:10.614Z,3.66
2023-06-12T05:52:41.140Z,3.84
2023-06-12T05:55:11.272Z,3.81
2023-06-12T05:57:39.972Z,3.81
2023-06-12T06:00:12.468Z,3.70
2023-06-12T06:02:45.142Z,3.23
2023-06-12T06:05:26.195Z,3.25
2023-06-12T06:07:57.059Z,3.43
2023-06-12T06:10:25.494Z,3.09
2023-06-12T06:12:54.669Z,2.78
2023-06-12T06:15:23.027Z,2.76
2023-06-12T06:17:51.690Z,2.53
2023-06-12T06:20:21.630Z,2.67
2023-06-12T06:22:51.472Z,2.12
2023-06-12T06:25:21.642Z,2.54
2023-06-12T06:27:51.155Z,2.23
2023-06-12T06:30:20.679Z,2.74
2023-06-12T06:32:48.953Z,2.19
2023-06-12T06:35:17.714Z,2.54
2023-06-12T06:40:44.678Z,2.19
2023-06-12T06:43:18.845Z,2.91
2023-06-12T06:45:54.364Z,2.31
2023-06-12T06:49:01.899Z,2.45
2023-06-12T06:51:42.001Z,2.34
2023-06-12T06:54:13.814Z,2.95
2023-06-12T06:57:10.852Z,2.69
2023-06-12T07:00:06.996Z,2.85
2023-06-12T07:02:48.607Z,2.45
2023-06-12T07:06:05.342Z,3.01
2023-06-12T07:08:41.518Z,3.45
2023-06-12T07:11:13.712Z,3.33
2023-06-12T07:13:45.477Z,3.34
2023-06-12T07:16:28.704Z,3.32
2023-06-12T07:19:07.529Z,3.13
2023-06-12T07:21:38.043Z,3.54
2023-06-12T07:24:22.177Z,3.49
2023-06-12T07:27:17.549Z,3.47
2023-06-12T07:30:03.521Z,3.52
2023-06-12T07:32:46.235Z,3.90
2023-06-12T07:35:20.254Z,3.48
2023-06-12T07:37:51.292Z,3.83
2023-06-12T07:40:21.201Z,4.02
2023-06-12T07:45:20.108Z,3.95
2023-06-12T07:47:50.924Z,4.88
2023-06-12T07:50:24.749Z,4.18
2023-06-12T07:52:53.226Z,4.87
2023-06-12T07:55:22.339Z,4.86
2023-06-12T07:57:51.698Z,5.35
2023-06-12T08:00:23.763Z,5.69
2023-06-12T08:02:59.442Z,5.76
2023-06-12T08:05:40.209Z,5.33
2023-06-12T08:08:14.558Z,5.76
2023-06-12T08:10:44.231Z,5.35
2023-06-12T08:13:13.688Z,5.70
2023-06-12T08:15:43.713Z,5.57
2023-06-12T08:18:14.679Z,6.33
2023-06-12T08:20:45.905Z,6.63
2023-06-12T08:23:14.464Z,6.89
2023-06-12T08:25:42.609Z,7.36
2023-06-12T08:28:12.078Z,7.42
2023-06-12T08:30:40.530Z,8.01
2023-06-12T08:33:12.137Z,8.45
2023-06-12T08:35:40.810Z,8.50
2023-06-12T08:38:09.336Z,8.82
2023-06-12T08:40:37.784Z,9.10
2023-06-12T08:43:06.619Z,9.57
2023-06-12T08:45:38.786Z,10.23
2023-06-12T08:48:10.388Z,10.71
2023-06-12T08:50:39.385Z,11.61
2023-06-12T08:53:09.080Z,12.08
2023-06-12T08:55:40.843Z,12.48
2023-06-12T08:58:09.466Z,14.03
2023-06-12T09:00:38.225Z,14.06
2023-06-12T09:03:08.655Z,14.50
2023-06-12T09:05:41.187Z,14.65
2023-06-12T09:08:09.839Z,15.15
2023-06-12T09:10:39.939Z,15.97
2023-06-12T09:13:09.542Z,16.36
2023-06-12T09:15:40.336Z,16.89
2023-06-12T09:18:13.162Z,17.07
2023-06-12T09:20:44.218Z,17.71
2023-06-12T09:23:14.050Z,18.16
2023-06-12T09:25:50.023Z,18.49
2023-06-12T09:28:38.317Z,18.55
2023-06-12T09:31:07.619Z,18.72
2023-06-12T09:33:40.361Z,18.79
2023-06-12T09:36:13.674Z,19.52
2023-06-12T09:38:42.055Z,19.63
2023-06-12T09:41:11.428Z,19.59
2023-06-12T09:43:39.583Z,19.00
2023-06-12T09:46:09.619Z,19.62
2023-06-12T09:48:39.281Z,19.88
2023-06-12T09:51:09.159Z,20.38
2023-06-12T09:53:41.147Z,20.16
2023-06-12T09:56:12.204Z,20.14
2023-06-12T09:58:43.345Z,19.85
2023-06-12T10:01:12.403Z,20.77
2023-06-12T10:03:45.869Z,20.79
2023-06-12T10:06:15.324Z,20.39
2023-06-12T10:08:45.144Z,21.11
2023-06-12T10:11:16.380Z,21.65
2023-06-12T10:13:46.423Z,20.92
2023-06-12T10:16:16.955Z,20.45
2023-06-12T10:18:45.807Z,21.26
2023-06-12T10:21:14.136Z,21.09
2023-06-12T10:23:43.166Z,21.59
2023-06-12T10:26:13.172Z,21.40
2023-06-12T10:28:41.239Z,21.65
2023-06-12T10:31:14.279Z,20.72
2023-06-12T10:33:59.483Z,20.91
2023-06-12T10:36:37.327Z,21.00
2023-06-12T10:39:07.006Z,21.09
2023-06-12T10:41:38.211Z,21.44
2023-06-12T10:44:36.264Z,21.11
2023-06-12T10:47:05.077Z,21.36
2023-06-12T10:49:53.651Z,21.14
2023-06-12T10:52:22.641Z,21.25
2023-06-12T10:54:51.088Z,21.35
2023-06-12T10:57:29.419Z,20.93
2023-06-12T10:59:58.351Z,20.68
2023-06-12T11:02:26.649Z,21.01
2023-06-12T11:04:55.495Z,21.54
2023-06-12T11:07:26.359Z,21.25
2023-06-12T11:09:55.336Z,20.64
2023-06-12T11:12:26.387Z,20.68
2023-06-12T11:15:00.854Z,20.79
2023-06-12T11:17:31.763Z,20.55
2023-06-12T11:20:01.404Z,21.17
2023-06-12T11:22:31.185Z,21.19
2023-06-12T11:25:01.883Z,21.40
2023-06-12T11:27:32.394Z,22.25
2023-06-12T11:30:19.027Z,22.97
2023-06-12T11:32:57.920Z,23.22
2023-06-12T11:35:26.109Z,22.63
2023-06-12T11:40:29.201Z,22.96
2023-06-12T11:42:59.103Z,22.77
2023-06-12T11:45:27.417Z,23.25
2023-06-12T11:50:28.504Z,23.43
2023-06-12T11:52:57.676Z,24.03
2023-06-12T11:58:04.052Z,23.77
2023-06-12T12:00:34.769Z,23.46
2023-06-12T12:03:05.328Z,23.98
2023-06-12T12:05:38.892Z,23.29
2023-06-12T12:08:09.223Z,23.58
2023-06-12T12:10:41.730Z,23.35
2023-06-12T12:13:12.190Z,24.03
2023-06-12T12:15:42.008Z,23.65
2023-06-12T12:18:14.989Z,24.22
2023-06-12T12:20:45.259Z,23.46
2023-06-12T12:23:15.240Z,23.20
2023-06-12T12:25:45.445Z,23.88
2023-06-12T12:28:15.280Z,24.01
2023-06-12T12:30:43.619Z,24.29
2023-06-12T12:33:11.657Z,24.04
2023-06-12T12:35:39.773Z,23.79
2023-06-12T12:38:10.219Z,23.86
2023-06-12T12:40:39.489Z,23.54
2023-06-12T12:43:07.577Z,23.90
2023-06-12T12:45:37.032Z,23.43
2023-06-12T12:48:07.602Z,23.58
2023-06-12T12:50:44.530Z,23.31
2023-06-12T12:53:23.099Z,23.42
2023-06-12T12:55:51.387Z,23.87
2023-06-12T12:58:19.534Z,24.39
2023-06-12T13:00:51.400Z,24.23
2023-06-12T13:03:20.131Z,24.11
2023-06-12T13:05:48.422Z,23.98
2023-06-12T13:08:17.428Z,23.33
2023-06-12T13:10:45.665Z,23.13
2023-06-12T13:13:15.772Z,23.61
2023-06-12T13:15:46.545Z,23.79
2023-06-12T13:18:16.998Z,23.76
2023-06-12T13:20:46.796Z,23.93
2023-06-12T13:23:15.317Z,23.82
2023-06-12T13:25:43.405Z,23.66
2023-06-12T13:28:11.589Z,23.63
2023-06-12T13:30:39.708Z,23.75
2023-06-12T13:33:07.901Z,23.70
2023-06-12T13:35:39.372Z,23.37
2023-06-12T13:38:08.374Z,23.36
2023-06-12T13:40:36.463Z,23.70
2023-06-12T13:43:04.690Z,23.50
2023-06-12T13:45:33.360Z,23.76
2023-06-12T13:48:03.638Z,23.60
2023-06-12T13:50:32.255Z,23.68
2023-06-12T13:53:01.719Z,23.71
2023-06-12T13:55:29.900Z,23.66
2023-06-12T13:57:59.649Z,23.64
2023-06-12T14:00:28.022Z,23.99
2023-06-12T14:02:56.136Z,23.99
2023-06-12T14:05:24.540Z,24.05
2023-06-12T14:07:52.978Z,23.82
2023-06-12T14:10:23.111Z,23.72
2023-06-12T14:12:51.731Z,23.51
2023-06-12T14:15:20.858Z,23.59
2023-06-12T14:17:49.257Z,23.52
2023-06-12T14:20:17.863Z,23.62
2023-06-12T14:22:46.425Z,23.38
2023-06-12T14:25:15.477Z,23.55
2023-06-12T14:27:45.536Z,23.60
2023-06-12T14:30:15.666Z,23.77
2023-06-12T14:32:44.080Z,23.73
2023-06-12T14:35:13.878Z,23.85
2023-06-12T14:37:42.246Z,23.76
2023-06-12T14:40:11.145Z,23.95
2023-06-12T14:42:39.835Z,23.80
2023-06-12T14:45:10.242Z,24.09
2023-06-12T14:47:38.578Z,24.47
2023-06-12T14:50:07.075Z,24.38
2023-06-12T14:52:35.412Z,24.46
2023-06-12T14:55:04.070Z,24.58
2023-06-12T14:57:32.202Z,24.84
2023-06-12T15:00:00.526Z,25.08
2023-06-12T15:02:31.158Z,25.23
2023-06-12T15:04:59.623Z,25.17
2023-06-12T15:07:29.104Z,25.21
2023-06-12T15:09:57.500Z,25.12
2023-06-12T15:12:25.636Z,25.27
2023-06-12T15:14:53.747Z,24.98
2023-06-12T15:17:21.794Z,25.00
2023-06-12T15:19:53.739Z,24.84
2023-06-12T15:22:21.811Z,25.10
2023-06-12T15:24:50.021Z,25.01
2023-06-12T15:27:18.090Z,24.73
2023-06-12T15:29:46.180Z,24.53
2023-06-12T15:32:14.280Z,24.66
2023-06-12T15:34:42.562Z,24.29
2023-06-12T15:37:16.862Z,24.05
2023-06-12T15:39:47.075Z,23.83
2023-06-12T15:42:16.799Z,23.63
2023-06-12T15:44:46.686Z,23.38
2023-06-12T15:47:15.120Z,23.22
2023-06-12T15:49:43.241Z,22.94
2023-06-12T15:52:12.739Z,22.87
2023-06-12T15:54:40.979Z,22.83
2023-06-12T15:57:09.345Z,22.49
2023-06-12T15:59:39.300Z,22.81
2023-06-12T16:02:08.331Z,22.93
2023-06-12T16:04:36.796Z,22.64
2023-06-12T16:07:06.107Z,22.75
2023-06-12T16:09:35.658Z,22.65
2023-06-12T16:12:03.752Z,23.02
2023-06-12T16:14:31.788Z,23.07
2023-06-12T16:17:02.946Z,23.21
2023-06-12T16:19:31.186Z,23.47
2023-06-12T16:21:59.463Z,23.48
2023-06-12T16:24:28.482Z,23.40
2023-06-12T16:27:00.921Z,23.54
2023-06-12T16:29:29.079Z,23.23
2023-06-12T16:31:57.317Z,23.02
2023-06-12T16:34:25.593Z,22.61
2023-06-12T16:36:53.998Z,21.87
2023-06-12T16:39:22.251Z,21.36
2023-06-12T16:41:50.567Z,20.29
2023-06-12T16:44:20.047Z,20.38
2023-06-12T16:46:48.250Z,19.66
2023-06-12T16:49:16.356Z,19.28
2023-06-12T16:51:44.557Z,19.09
2023-06-12T16:54:13.525Z,19.21
2023-06-12T16:56:41.607Z,19.45
2023-06-12T16:59:09.729Z,19.33
2023-06-12T17:01:39.439Z,19.28
2023-06-12T17:04:07.655Z,19.81
2023-06-12T17:06:36.888Z,20.05
2023-06-12T17:09:07.534Z,20.27
2023-06-12T17:11:36.274Z,20.32
2023-06-12T17:14:04.413Z,20.38
2023-06-12T17:16:32.542Z,20.59
2023-06-12T17:19:02.000Z,20.69
2023-06-12T17:21:30.492Z,20.60
2023-06-12T17:23:58.844Z,20.31
2023-06-12T17:26:28.698Z,20.52
2023-06-12T17:28:56.765Z,20.57
2023-06-12T17:31:24.937Z,20.74
2023-06-12T17:33:53.177Z,20.61
2023-06-12T17:36:22.655Z,20.47
2023-06-12T17:38:50.813Z,20.28
2023-06-12T17:41:19.058Z,20.28
2023-06-12T17:43:47.793Z,20.30
2023-06-12T17:46:18.207Z,20.22
2023-06-12T17:48:48.973Z,20.75
2023-06-12T17:51:17.307Z,20.92
2023-06-12T17:53:47.979Z,21.26
2023-06-12T17:56:16.141Z,21.32
2023-06-12T17:58:44.271Z,21.29
2023-06-12T18:01:14.198Z,21.48
2023-06-12T18:03:42.989Z,21.66
2023-06-12T18:06:11.782Z,21.97
2023-06-12T18:08:39.974Z,22.67
2023-06-12T18:11:09.406Z,22.88
2023-06-12T18:13:37.569Z,23.73
2023-06-12T18:16:06.764Z,24.59
2023-06-12T18:18:35.087Z,25.64
2023-06-12T18:21:03.200Z,25.71
2023-06-12T18:23:31.334Z,25.92
2023-06-12T18:25:59.404Z,26.32
2023-06-12T18:28:33.346Z,26.18
2023-06-12T18:31:02.139Z,26.44
2023-06-12T18:33:30.603Z,26.26
2023-06-12T18:35:58.888Z,26.39
2023-06-12T18:38:27.053Z,26.27
2023-06-12T18:40:55.143Z,26.32
2023-06-12T18:43:23.337Z,26.21
2023-06-12T18:45:52.927Z,25.96
2023-06-12T18:48:21.095Z,25.62
2023-06-12T18:50:49.717Z,25.49
2023-06-12T18:53:18.157Z,25.19
2023-06-12T18:55:46.360Z,25.13
2023-06-12T18:58:14.721Z,24.81
2023-06-12T19:00:43.467Z,24.88
2023-06-12T19:03:13.085Z,25.02
2023-06-12T19:05:42.094Z,25.22
2023-06-12T19:08:11.478Z,25.40
2023-06-12T19:10:39.749Z,25.62
2023-06-12T19:13:08.010Z,26.05
2023-06-12T19:15:36.173Z,26.17
2023-06-12T19:18:04.822Z,26.46
2023-06-12T19:20:35.876Z,27.06
2023-06-12T19:23:04.770Z,27.19
2023-06-12T19:25:32.925Z,27.27
2023-06-12T19:28:01.154Z,27.84
2023-06-12T19:30:29.231Z,28.06
2023-06-12T19:32:57.463Z,28.53
2023-06-12T19:35:25.734Z,28.80
2023-06-12T19:37:55.148Z,28.99
2023-06-12T19:40:23.470Z,28.93
2023-06-12T19:42:51.728Z,29.11
2023-06-12T19:45:24.093Z,29.63
2023-06-12T19:47:53.018Z,30.05
2023-06-12T19:50:22.115Z,29.84
2023-06-12T19:52:50.782Z,29.67
2023-06-12T19:55:20.327Z,29.71
2023-06-12T19:57:49.312Z,30.37
2023-06-12T20:00:18.451Z,30.44
2023-06-12T20:02:46.533Z,30.59
2023-06-12T20:05:15.038Z,30.59
2023-06-12T20:07:44.003Z,30.87
2023-06-12T20:10:12.597Z,31.31
2023-06-12T20:12:42.034Z,31.54
2023-06-12T20:15:12.248Z,31.95
2023-06-12T20:17:40.911Z,31.99
2023-06-12T20:20:09.508Z,32.49
2023-06-12T20:22:38.135Z,32.59
2023-06-12T20:25:06.927Z,32.78
2023-06-12T20:27:45.390Z,32.52
2023-06-12T20:30:13.826Z,32.73
2023-06-12T20:32:42.294Z,33.33
2023-06-12T20:35:10.956Z,33.39
2023-06-12T20:37:39.655Z,33.57
2023-06-12T20:40:08.850Z,34.24
2023-06-12T20:42:37.061Z,34.78
2023-06-12T20:45:07.592Z,34.80
2023-06-12T20:47:38.284Z,35.12
2023-06-12T20:50:07.587Z,35.41
2023-06-12T20:52:35.901Z,35.54
2023-06-12T20:55:04.088Z,35.29
2023-06-12T20:57:32.290Z,35.43
2023-06-12T21:00:00.793Z,36.16
2023-06-12T21:02:30.782Z,36.32
2023-06-12T21:05:00.148Z,35.97
2023-06-12T21:07:28.220Z,36.16
2023-06-12T21:09:56.349Z,36.78
2023-06-12T21:12:24.430Z,36.89
2023-06-12T21:14:53.414Z,37.31
2023-06-12T21:17:21.593Z,37.33
2023-06-12T21:19:51.275Z,37.28
2023-06-12T21:22:37.807Z,38.09
2023-06-12T21:25:07.077Z,37.34
2023-06-12T21:27:36.284Z,37.33
2023-06-12T21:30:05.889Z,37.48
2023-06-12T21:32:35.758Z,38.02
2023-06-12T21:35:08.557Z,39.98
2023-06-12T21:37:37.329Z,39.63
2023-06-12T21:40:07.299Z,39.24
2023-06-12T21:42:35.457Z,39.61
2023-06-12T21:45:03.707Z,39.11
2023-06-12T21:47:33.421Z,39.47
2023-06-12T21:50:02.376Z,39.98
2023-06-12T21:52:32.894Z,40.04
2023-06-12T21:55:01.220Z,39.96
2023-06-12T21:57:29.307Z,41.54
2023-06-12T21:59:57.441Z,42.12
2023-06-12T22:02:25.455Z,41.61
2023-06-12T22:04:53.665Z,41.58
2023-06-12T22:07:21.839Z,41.52
2023-06-12T22:09:51.314Z,41.42
2023-06-12T22:12:19.576Z,41.71
2023-06-12T22:14:47.716Z,41.73
2023-06-12T22:17:15.808Z,41.85
2023-06-12T22:19:44.012Z,42.23
2023-06-12T22:22:12.063Z,41.82
2023-06-12T22:24:40.106Z,42.28
2023-06-12T22:27:09.776Z,42.44
2023-06-12T22:29:37.889Z,42.51
2023-06-12T22:32:08.024Z,42.08
2023-06-12T22:34:36.194Z,42.38
2023-06-12T22:37:04.974Z,42.50
2023-06-12T22:39:34.443Z,42.21
2023-06-12T22:42:02.596Z,42.09
2023-06-12T22:44:31.987Z,42.42
2023-06-12T22:47:01.706Z,42.50
2023-06-12T22:49:31.128Z,42.34
2023-06-12T22:51:59.354Z,42.45
2023-06-12T22:54:27.505Z,42.19
2023-06-12T22:56:55.591Z,41.77
2023-06-12T22:59:23.828Z,40.91
2023-06-12T23:01:53.266Z,40.84
2023-06-12T23:04:22.334Z,41.28
2023-06-12T23:06:50.464Z,41.13
2023-06-12T23:09:19.079Z,41.25
2023-06-12T23:11:47.187Z,41.42
2023-06-12T23:14:15.355Z,40.79
2023-06-12T23:16:44.565Z,40.92
2023-06-12T23:19:14.059Z,40.09
2023-06-12T23:21:43.249Z,39.85
2023-06-12T23:24:13.211Z,39.75
2023-06-12T23:26:42.375Z,39.66
2023-06-12T23:29:10.517Z,40.02
2023-06-12T23:31:38.583Z,39.60
2023-06-12T23:34:06.903Z,39.54
2023-06-12T23:36:40.823Z,39.73
2023-06-12T23:39:09.533Z,40.30
2023-06-12T23:41:38.106Z,40.77
2023-06-12T23:44:06.713Z,40.51
2023-06-12T23:46:34.911Z,41.66
2023-06-12T23:49:03.094Z,42.27
2023-06-12T23:51:32.794Z,42.57
2023-06-12T23:54:03.280Z,43.46
2023-06-12T23:56:31.389Z,44.03
2023-06-12T23:58:59.586Z,44.70
